createdAt,value
2018-02-02T00:01:46.174Z,11.33
2018-02-02T00:04:16.217Z,13.27
2018-02-02T00:06:46.252Z,16.30
2018-02-02T00:09:16.226Z,15.53
2018-02-02T00:11:46.125Z,13.63
2018-02-02T00:14:16.166Z,13.80
2018-02-02T00:16:46.083Z,18.03
2018-02-02T00:19:16.125Z,14.13
2018-02-02T00:21:47.648Z,13.03
2018-02-02T00:24:17.692Z,14.93
2018-02-02T00:26:47.526Z,12.48
2018-02-02T00:29:18.461Z,11.30
2018-02-02T00:31:48.564Z,20.00
2018-02-02T00:34:18.510Z,9.77
2018-02-02T00:36:49.258Z,11.60
2018-02-02T00:39:19.172Z,15.63
2018-02-02T00:41:49.116Z,10.53
2018-02-02T00:44:19.034Z,13.73
2018-02-02T00:46:49.049Z,12.13
2018-02-02T00:49:18.846Z,10.03
2018-02-02T00:51:52.749Z,9.50
2018-02-02T00:54:22.755Z,12.60
2018-02-02T00:56:53.367Z,10.85
2018-02-02T00:59:23.404Z,12.23
2018-02-02T01:01:54.184Z,12.23
2018-02-02T01:04:24.041Z,11.57
2018-02-02T01:06:54.780Z,14.10
2018-02-02T01:09:25.370Z,15.60
2018-02-02T01:11:55.320Z,9.77
2018-02-02T01:14:25.212Z,10.13
2018-02-02T01:16:55.277Z,11.57
2018-02-02T01:19:25.991Z,16.33
2018-02-02T01:21:55.828Z,12.30
2018-02-02T01:24:26.433Z,13.90
2018-02-02T01:26:56.472Z,14.47
2018-02-02T01:29:27.349Z,10.93
2018-02-02T01:31:57.513Z,12.97
2018-02-02T01:34:27.364Z,20.83
2018-02-02T01:36:57.306Z,15.40
2018-02-02T01:39:27.254Z,13.73
2018-02-02T01:41:57.228Z,10.60
2018-02-02T01:44:27.267Z,13.27
2018-02-02T01:46:57.429Z,15.47
2018-02-02T01:49:28.176Z,11.23
2018-02-02T01:51:58.838Z,13.93
2018-02-02T01:54:29.277Z,12.77
2018-02-02T01:56:59.336Z,14.77
2018-02-02T01:59:29.263Z,13.70
2018-02-02T02:01:59.992Z,14.83
2018-02-02T02:04:30.714Z,16.33
2018-02-02T02:07:00.909Z,15.37
2018-02-02T02:09:30.913Z,17.03
2018-02-02T02:12:00.752Z,15.97
2018-02-02T02:14:30.701Z,20.10
2018-02-02T02:17:01.267Z,18.83
2018-02-02T02:19:31.045Z,13.47
2018-02-02T02:22:01.623Z,16.73
2018-02-02T02:24:31.432Z,14.43
2018-02-02T02:27:01.230Z,14.80
2018-02-02T02:29:31.093Z,14.77
2018-02-02T02:32:01.310Z,17.53
2018-02-02T02:34:31.288Z,12.00
2018-02-02T02:37:01.093Z,14.38
2018-02-02T02:39:31.834Z,12.75
2018-02-02T02:42:01.745Z,13.35
2018-02-02T02:44:31.612Z,13.45
2018-02-02T02:47:01.392Z,14.43
2018-02-02T02:49:31.594Z,11.95
2018-02-02T02:52:01.502Z,14.10
2018-02-02T02:54:32.164Z,11.27
2018-02-02T02:57:01.918Z,15.80
2018-02-02T02:59:32.090Z,12.07
2018-02-02T03:02:01.946Z,14.30
2018-02-02T03:04:31.877Z,14.10
2018-02-02T03:07:01.870Z,10.97
2018-02-02T03:09:31.745Z,11.53
2018-02-02T03:12:01.520Z,11.30
2018-02-02T03:14:32.128Z,11.80
2018-02-02T03:17:01.923Z,11.47
2018-02-02T03:19:31.753Z,15.10
2018-02-02T03:22:01.807Z,13.62
2018-02-02T03:24:32.793Z,18.37
2018-02-02T03:27:02.721Z,16.00
2018-02-02T03:29:32.737Z,18.33
2018-02-02T03:32:02.508Z,19.37
2018-02-02T03:34:32.629Z,16.07
2018-02-02T03:37:02.500Z,15.77
2018-02-02T03:39:32.512Z,14.63
2018-02-02T03:42:02.357Z,20.93
2018-02-02T03:44:33.011Z,13.87
2018-02-02T03:47:03.086Z,18.83
2018-02-02T03:49:33.799Z,20.37
2018-02-02T03:52:03.610Z,16.87
2018-02-02T03:54:33.732Z,17.03
2018-02-02T03:57:03.531Z,20.63
2018-02-02T03:59:33.495Z,18.70
2018-02-02T04:02:03.528Z,15.30
2018-02-02T04:04:34.517Z,17.97
2018-02-02T04:07:04.548Z,16.37
2018-02-02T04:09:34.349Z,14.47
2018-02-02T04:12:04.188Z,13.37
2018-02-02T04:14:33.992Z,18.13
2018-02-02T04:17:03.939Z,17.40
2018-02-02T04:19:33.910Z,17.00
2018-02-02T04:22:03.756Z,14.23
2018-02-02T04:24:35.289Z,14.27
2018-02-02T04:27:05.099Z,12.17
2018-02-02T04:29:34.934Z,11.47
2018-02-02T04:32:04.849Z,11.03
2018-02-02T04:34:34.858Z,10.83
2018-02-02T04:37:05.573Z,11.50
2018-02-02T04:39:35.404Z,12.47
2018-02-02T04:42:05.317Z,13.23
2018-02-02T04:44:35.198Z,10.03
2018-02-02T04:47:05.247Z,16.20
2018-02-02T04:49:35.076Z,12.17
2018-02-02T04:52:05.089Z,13.37
2018-02-02T04:54:35.012Z,13.30
2018-02-02T04:57:04.896Z,14.40
2018-02-02T04:59:34.787Z,11.40
2018-02-02T05:02:04.653Z,11.43
2018-02-02T05:04:34.516Z,11.17
2018-02-02T05:07:05.237Z,12.40
2018-02-02T05:09:35.906Z,13.73
2018-02-02T05:12:05.972Z,15.10
2018-02-02T05:14:35.848Z,13.80
2018-02-02T05:17:05.644Z,16.23
2018-02-02T05:19:35.505Z,16.17
2018-02-02T05:22:06.158Z,19.57
2018-02-02T05:24:36.859Z,16.77
2018-02-02T05:27:07.480Z,16.77
2018-02-02T05:29:37.220Z,19.00
2018-02-02T05:32:07.128Z,16.67
2018-02-02T05:34:38.335Z,16.70
2018-02-02T05:37:09.301Z,17.77
2018-02-02T05:39:39.208Z,16.90
2018-02-02T05:42:09.868Z,14.50
2018-02-02T05:44:39.707Z,20.43
2018-02-02T05:47:09.772Z,16.23
2018-02-02T05:49:46.591Z,15.13
2018-02-02T05:52:16.446Z,11.80
2018-02-02T05:54:46.296Z,15.57
2018-02-02T05:57:16.096Z,14.17
2018-02-02T05:59:46.780Z,19.87
2018-02-02T06:02:16.817Z,17.77
2018-02-02T06:04:46.713Z,18.23
2018-02-02T06:07:16.742Z,20.20
2018-02-02T06:09:46.612Z,14.63
2018-02-02T06:12:16.599Z,16.80
2018-02-02T06:14:46.510Z,17.70
2018-02-02T06:17:16.499Z,16.83
2018-02-02T06:19:46.556Z,17.83
2018-02-02T06:22:17.354Z,17.37
2018-02-02T06:24:48.061Z,17.77
2018-02-02T06:27:17.896Z,17.20
2018-02-02T06:29:47.901Z,16.77
2018-02-02T06:32:17.817Z,14.47
2018-02-02T06:34:47.751Z,14.17
2018-02-02T06:37:17.778Z,21.73
2018-02-02T06:39:47.707Z,15.50
2018-02-02T06:42:17.673Z,16.30
2018-02-02T06:44:48.493Z,16.33
2018-02-02T06:47:18.358Z,20.90
2018-02-02T06:49:48.165Z,17.73
2018-02-02T06:52:17.986Z,19.10
2018-02-02T06:54:47.807Z,14.60
2018-02-02T06:57:17.836Z,15.27
2018-02-02T06:59:47.652Z,17.03
2018-02-02T07:02:17.657Z,14.30
2018-02-02T07:04:47.583Z,19.07
2018-02-02T07:07:17.683Z,19.87
2018-02-02T07:09:47.767Z,19.27
2018-02-02T07:12:18.514Z,14.47
2018-02-02T07:14:48.338Z,15.90
2018-02-02T07:17:18.161Z,17.20
2018-02-02T07:19:48.311Z,15.67
2018-02-02T07:22:18.208Z,19.13
2018-02-02T07:24:48.251Z,14.73
2018-02-02T07:27:18.441Z,15.97
2018-02-02T07:29:48.214Z,18.87
2018-02-02T07:32:19.209Z,19.87
2018-02-02T07:34:49.128Z,16.13
2018-02-02T07:37:19.108Z,18.07
2018-02-02T07:39:48.916Z,11.73
2018-02-02T07:42:19.429Z,15.87
2018-02-02T07:44:49.415Z,16.07
2018-02-02T07:47:19.436Z,13.43
2018-02-02T07:49:50.127Z,13.07
2018-02-02T07:52:20.356Z,12.43
2018-02-02T07:54:50.134Z,11.83
2018-02-02T07:57:20.237Z,16.03
2018-02-02T07:59:51.048Z,9.07
2018-02-02T08:02:20.954Z,11.00
2018-02-02T08:04:50.920Z,10.60
2018-02-02T08:07:25.572Z,10.00
2018-02-02T08:09:55.414Z,9.77
2018-02-02T08:12:25.382Z,10.87
2018-02-02T08:14:55.989Z,11.13
2018-02-02T08:17:25.871Z,9.70
2018-02-02T08:19:56.106Z,9.83
2018-02-02T08:22:25.975Z,9.90
2018-02-02T08:24:56.571Z,9.23
2018-02-02T08:27:27.709Z,8.43
2018-02-02T08:29:58.235Z,7.83
2018-02-02T08:32:28.127Z,9.23
2018-02-02T08:34:58.162Z,7.50
2018-02-02T08:37:28.794Z,6.37
2018-02-02T08:39:59.058Z,4.87
2018-02-02T08:42:29.364Z,5.63
2018-02-02T08:44:59.334Z,5.40
2018-02-02T08:47:29.292Z,7.03
2018-02-02T08:49:59.310Z,10.17
2018-02-02T08:52:29.364Z,9.07
2018-02-02T08:54:59.960Z,8.43
2018-02-02T08:57:31.138Z,7.83
2018-02-02T09:00:01.916Z,7.63
2018-02-02T09:02:31.771Z,9.33
2018-02-02T09:05:03.671Z,6.33
2018-02-02T09:07:33.689Z,6.60
2018-02-02T09:10:03.656Z,8.87
2018-02-02T09:12:33.938Z,10.40
2018-02-02T09:15:03.921Z,5.33
2018-02-02T09:17:33.768Z,5.43
2018-02-02T09:20:04.033Z,7.17
2018-02-02T09:22:34.089Z,6.60
2018-02-02T09:25:04.718Z,7.13
2018-02-02T09:27:33.704Z,7.10
2018-02-02T09:30:03.842Z,5.47
2018-02-02T09:32:34.480Z,5.80
2018-02-02T09:35:04.695Z,5.80
2018-02-02T09:37:35.437Z,6.73
2018-02-02T09:40:05.578Z,5.40
2018-02-02T09:42:35.465Z,4.93
2018-02-02T09:45:06.230Z,5.20
2018-02-02T09:47:36.256Z,7.07
2018-02-02T09:50:06.212Z,6.33
2018-02-02T09:52:36.095Z,4.60
2018-02-02T09:55:06.331Z,9.70
2018-02-02T09:57:36.148Z,6.90
2018-02-02T10:00:06.284Z,6.37
2018-02-02T10:02:36.262Z,6.07
2018-02-02T10:05:06.303Z,6.47
2018-02-02T10:07:36.548Z,5.63
2018-02-02T10:10:06.649Z,6.33
2018-02-02T10:12:37.101Z,7.00
2018-02-02T10:15:07.709Z,8.17
2018-02-02T10:17:38.104Z,6.53
2018-02-02T10:20:08.728Z,6.33
2018-02-02T10:22:48.027Z,7.20
2018-02-02T10:25:34.353Z,8.97
2018-02-02T10:28:04.521Z,6.40
2018-02-02T10:30:34.972Z,7.50
2018-02-02T10:33:05.193Z,9.17
2018-02-02T10:35:35.404Z,13.30
2018-02-02T10:38:05.623Z,11.07
2018-02-02T10:40:35.761Z,11.77
2018-02-02T10:43:07.624Z,7.10
2018-02-02T10:45:37.743Z,11.10
2018-02-02T10:48:07.970Z,7.10
2018-02-02T10:50:38.289Z,7.93
2018-02-02T10:53:08.420Z,5.13
2018-02-02T10:55:38.225Z,4.17
2018-02-02T10:58:08.297Z,2.63
2018-02-02T11:00:42.227Z,2.90
2018-02-02T11:03:20.397Z,3.30
2018-02-02T11:05:50.270Z,2.60
2018-02-02T11:08:20.331Z,3.90
2018-02-02T11:10:50.205Z,2.63
2018-02-02T11:13:20.467Z,6.73
2018-02-02T11:15:50.393Z,4.37
2018-02-02T11:18:20.584Z,3.60
2018-02-02T11:20:50.773Z,6.30
2018-02-02T11:23:20.730Z,9.63
2018-02-02T11:25:51.586Z,3.93
2018-02-02T11:28:22.381Z,5.63
2018-02-02T11:30:52.293Z,3.40
2018-02-02T11:33:22.133Z,3.20
2018-02-02T11:35:52.776Z,5.23
2018-02-02T11:38:22.771Z,2.53
2018-02-02T11:40:53.555Z,7.33
2018-02-02T11:43:23.442Z,4.30
2018-02-02T11:45:54.163Z,7.03
2018-02-02T11:48:24.074Z,8.03
2018-02-02T11:50:55.036Z,8.13
2018-02-02T11:53:25.137Z,9.60
2018-02-02T11:55:55.827Z,8.93
2018-02-02T11:58:25.724Z,18.43
2018-02-02T12:00:55.703Z,7.73
2018-02-02T12:03:26.349Z,5.00
2018-02-02T12:05:57.037Z,6.43
2018-02-02T12:08:27.057Z,5.93
2018-02-02T12:10:57.126Z,12.97
2018-02-02T12:13:26.993Z,8.13
2018-02-02T12:15:56.941Z,12.43
2018-02-02T12:18:27.617Z,13.97
2018-02-02T12:20:57.897Z,15.37
2018-02-02T12:23:28.865Z,18.03
2018-02-02T12:25:58.869Z,13.63
2018-02-02T12:28:30.278Z,12.43
2018-02-02T12:31:00.892Z,9.87
2018-02-02T12:33:31.920Z,9.27
2018-02-02T12:36:03.091Z,10.50
2018-02-02T12:38:33.409Z,10.57
2018-02-02T12:41:03.606Z,17.10
2018-02-02T12:43:33.842Z,8.73
2018-02-02T12:46:04.249Z,9.20
2018-02-02T12:48:42.521Z,9.37
2018-02-02T12:51:18.190Z,8.53
2018-02-02T12:53:49.437Z,8.27
2018-02-02T12:56:20.842Z,9.37
2018-02-02T12:58:51.059Z,8.47
2018-02-02T13:01:21.709Z,9.53
2018-02-02T13:03:52.438Z,10.27
2018-02-02T13:06:22.815Z,7.70
2018-02-02T13:08:53.760Z,9.47
2018-02-02T13:11:24.241Z,15.07
2018-02-02T13:13:55.314Z,8.77
2018-02-02T13:16:26.294Z,7.23
2018-02-02T13:18:56.418Z,8.13
2018-02-02T13:21:27.832Z,10.90
2018-02-02T13:23:59.195Z,12.83
2018-02-02T13:26:29.638Z,17.27
2018-02-02T13:28:59.881Z,14.53
2018-02-02T13:31:30.589Z,15.73
2018-02-02T13:34:00.923Z,27.93
2018-02-02T13:36:31.909Z,22.93
2018-02-02T13:39:02.112Z,19.03
2018-02-02T13:41:32.462Z,11.77
2018-02-02T13:44:02.719Z,11.97
2018-02-02T13:46:33.102Z,16.43
2018-02-02T13:49:03.810Z,15.37
2018-02-02T13:51:34.419Z,13.57
2018-02-02T13:54:04.872Z,11.10
2018-02-02T13:56:36.425Z,10.60
2018-02-02T13:59:06.565Z,17.07
2018-02-02T14:01:36.457Z,13.50
2018-02-02T14:04:06.577Z,11.60
2018-02-02T14:06:36.551Z,10.87
2018-02-02T14:09:07.260Z,13.83
2018-02-02T14:11:37.199Z,12.60
2018-02-02T14:14:07.979Z,11.80
2018-02-02T14:16:38.051Z,8.90
2018-02-02T14:19:08.984Z,8.33
2018-02-02T14:21:38.951Z,11.70
2018-02-02T14:24:08.760Z,11.73
2018-02-02T14:26:38.862Z,11.67
2018-02-02T14:29:08.836Z,10.17
2018-02-02T14:31:38.802Z,8.60
2018-02-02T14:34:08.732Z,9.47
2018-02-02T14:36:38.605Z,10.07
2018-02-02T14:39:08.416Z,14.07
2018-02-02T14:41:39.036Z,16.00
2018-02-02T14:44:09.169Z,11.47
2018-02-02T14:46:39.942Z,13.07
2018-02-02T14:49:09.916Z,15.30
2018-02-02T14:51:40.092Z,12.30
2018-02-02T14:54:09.951Z,9.73
2018-02-02T14:56:41.039Z,7.07
2018-02-02T14:59:29.151Z,6.17
2018-02-02T15:02:00.892Z,8.43
2018-02-02T15:04:32.636Z,14.93
2018-02-02T15:07:02.881Z,8.23
2018-02-02T15:09:33.720Z,9.13
2018-02-02T15:12:04.770Z,10.07
2018-02-02T15:14:35.849Z,11.33
2018-02-02T15:17:06.376Z,11.80
2018-02-02T15:19:36.922Z,9.30
2018-02-02T15:22:07.456Z,14.10
2018-02-02T15:24:37.740Z,11.97
2018-02-02T15:27:08.371Z,8.37
2018-02-02T15:29:38.795Z,11.07
2018-02-02T15:32:09.038Z,8.43
2018-02-02T15:34:40.135Z,10.47
2018-02-02T15:37:11.128Z,10.10
2018-02-02T15:39:41.531Z,10.53
2018-02-02T15:42:12.133Z,12.93
2018-02-02T15:44:42.637Z,8.87
2018-02-02T15:47:13.094Z,19.00
2018-02-02T15:49:43.305Z,16.03
2018-02-02T15:52:14.345Z,16.30
2018-02-02T15:54:44.886Z,12.77
2018-02-02T15:57:16.610Z,8.40
2018-02-02T15:59:46.925Z,8.60
2018-02-02T16:02:17.442Z,9.97
2018-02-02T16:04:47.957Z,7.37
2018-02-02T16:07:18.337Z,10.10
2018-02-02T16:09:49.082Z,10.70
2018-02-02T16:12:20.326Z,6.50
2018-02-02T16:14:51.081Z,8.20
2018-02-02T16:17:22.238Z,9.80
2018-02-02T16:19:53.027Z,10.77
2018-02-02T16:22:23.747Z,11.33
2018-02-02T16:24:54.220Z,8.80
2018-02-02T16:27:24.324Z,10.30
2018-02-02T16:29:55.193Z,6.00
2018-02-02T16:32:26.164Z,9.30
2018-02-02T16:34:57.386Z,10.00
2018-02-02T16:37:27.845Z,16.47
2018-02-02T16:39:58.018Z,17.90
2018-02-02T16:42:28.820Z,15.63
2018-02-02T16:44:58.885Z,16.47
2018-02-02T16:47:29.124Z,24.90
2018-02-02T16:49:59.660Z,13.73
2018-02-02T16:52:29.655Z,13.63
2018-02-02T16:54:59.848Z,11.00
2018-02-02T16:57:29.739Z,12.07
2018-02-02T17:00:00.041Z,18.63
2018-02-02T17:02:30.241Z,9.43
2018-02-02T17:05:00.402Z,12.37
2018-02-02T17:07:30.617Z,15.32
2018-02-02T17:10:00.879Z,12.70
2018-02-02T17:12:31.286Z,13.33
2018-02-02T17:15:01.482Z,12.57
2018-02-02T17:17:31.524Z,9.83
2018-02-02T17:20:02.124Z,10.73
2018-02-02T17:22:32.053Z,15.00
2018-02-02T17:25:02.923Z,9.20
2018-02-02T17:27:32.896Z,7.10
2018-02-02T17:30:02.968Z,11.43
2018-02-02T17:32:33.853Z,7.67
2018-02-02T17:35:05.488Z,7.23
2018-02-02T17:37:37.075Z,7.90
2018-02-02T17:40:09.509Z,11.83
2018-02-02T17:42:41.048Z,9.87
2018-02-02T17:45:12.702Z,11.73
2018-02-02T17:47:42.549Z,10.83
2018-02-02T17:50:12.639Z,10.57
2018-02-02T17:52:45.720Z,12.93
2018-02-02T17:55:15.692Z,12.10
2018-02-02T17:57:46.089Z,8.73
2018-02-02T18:00:16.384Z,12.33
2018-02-02T18:02:48.250Z,8.37
2018-02-02T18:05:19.372Z,14.07
2018-02-02T18:07:49.603Z,14.17
2018-02-02T18:10:19.705Z,17.17
2018-02-02T18:12:50.200Z,18.70
2018-02-02T18:15:20.194Z,16.10
2018-02-02T18:17:51.080Z,20.00
2018-02-02T18:20:21.126Z,20.50
2018-02-02T18:22:51.285Z,23.83
2018-02-02T18:25:21.270Z,18.67
2018-02-02T18:27:51.407Z,17.10
2018-02-02T18:30:21.481Z,22.13
2018-02-02T18:32:51.458Z,19.27
2018-02-02T18:35:21.568Z,14.27
2018-02-02T18:37:51.648Z,15.77
2018-02-02T18:40:21.639Z,18.10
2018-02-02T18:42:51.791Z,16.20
2018-02-02T18:45:21.744Z,10.80
2018-02-02T18:47:51.772Z,12.57
2018-02-02T18:50:21.761Z,12.17
2018-02-02T18:52:52.613Z,9.77
2018-02-02T18:55:22.675Z,8.27
2018-02-02T18:57:52.869Z,7.70
2018-02-02T19:00:22.947Z,11.87
2018-02-02T19:02:52.955Z,9.60
2018-02-02T19:05:23.460Z,9.20
2018-02-02T19:07:53.319Z,9.60
2018-02-02T19:10:23.340Z,9.17
2018-02-02T19:12:55.313Z,8.30
2018-02-02T19:15:25.304Z,8.43
2018-02-02T19:17:55.400Z,10.07
2018-02-02T19:20:25.528Z,9.97
2018-02-02T19:22:55.597Z,9.67
2018-02-02T19:25:25.850Z,10.93
2018-02-02T19:27:55.781Z,11.40
2018-02-02T19:30:26.083Z,9.33
2018-02-02T19:32:56.074Z,9.10
2018-02-02T19:35:25.981Z,5.57
2018-02-02T19:37:56.107Z,7.73
2018-02-02T19:40:26.250Z,10.73
2018-02-02T19:42:57.120Z,8.50
2018-02-02T19:45:27.354Z,9.60
2018-02-02T19:47:57.575Z,12.60
2018-02-02T19:50:27.745Z,7.03
2018-02-02T19:52:58.663Z,9.17
2018-02-02T19:55:28.617Z,7.23
2018-02-02T19:57:58.533Z,9.47
2018-02-02T20:00:28.617Z,8.63
2018-02-02T20:02:58.846Z,7.63
2018-02-02T20:05:29.600Z,7.70
2018-02-02T20:08:00.482Z,7.13
2018-02-02T20:10:31.154Z,5.67
2018-02-02T20:13:02.447Z,6.83
2018-02-02T20:15:32.945Z,6.73
2018-02-02T20:18:04.054Z,4.47
2018-02-02T20:20:34.376Z,6.20
2018-02-02T20:23:04.760Z,6.93
2018-02-02T20:25:35.342Z,5.07
2018-02-02T20:28:06.612Z,7.13
2018-02-02T20:30:38.081Z,5.53
2018-02-02T20:33:09.103Z,3.77
2018-02-02T20:35:39.641Z,7.43
2018-02-02T20:38:10.573Z,4.23
2018-02-02T20:40:40.791Z,6.47
2018-02-02T20:43:11.066Z,5.20
2018-02-02T20:45:41.194Z,6.13
2018-02-02T20:48:11.191Z,6.40
2018-02-02T20:50:41.911Z,4.23
2018-02-02T20:53:12.168Z,6.07
2018-02-02T20:55:42.108Z,7.80
2018-02-02T20:58:12.111Z,5.93
2018-02-02T21:00:42.362Z,6.93
2018-02-02T21:03:12.580Z,5.03
2018-02-02T21:05:42.673Z,6.53
2018-02-02T21:08:12.605Z,5.70
2018-02-02T21:10:42.532Z,3.93
2018-02-02T21:13:12.371Z,6.60
2018-02-02T21:15:42.418Z,7.23
2018-02-02T21:18:13.298Z,4.00
2018-02-02T21:20:43.338Z,4.97
2018-02-02T21:23:13.397Z,4.97
2018-02-02T21:25:43.417Z,9.63
2018-02-02T21:28:13.465Z,8.50
2018-02-02T21:30:43.360Z,10.37
2018-02-02T21:33:14.091Z,8.13
2018-02-02T21:35:45.111Z,9.07
2018-02-02T21:38:15.039Z,5.63
2018-02-02T21:40:44.989Z,7.43
2018-02-02T21:43:15.017Z,7.17
2018-02-02T21:45:45.039Z,9.00
2018-02-02T21:48:14.981Z,8.03
2018-02-02T21:50:44.917Z,9.20
2018-02-02T21:53:14.813Z,8.93
2018-02-02T21:55:44.755Z,5.63
2018-02-02T21:58:15.467Z,6.97
2018-02-02T22:00:45.958Z,7.63
2018-02-02T22:03:15.914Z,9.30
2018-02-02T22:05:46.163Z,8.37
2018-02-02T22:08:16.528Z,7.87
2018-02-02T22:10:46.849Z,15.13
2018-02-02T22:13:16.979Z,9.40
2018-02-02T22:15:47.333Z,6.20
2018-02-02T22:18:17.191Z,9.00
2018-02-02T22:20:47.305Z,12.97
2018-02-02T22:23:18.169Z,8.23
2018-02-02T22:25:48.253Z,10.03
2018-02-02T22:28:18.509Z,10.87
2018-02-02T22:30:49.190Z,14.07
2018-02-02T22:33:20.058Z,10.13
2018-02-02T22:35:50.416Z,10.30
2018-02-02T22:38:20.359Z,11.03
2018-02-02T22:40:51.298Z,10.33
2018-02-02T22:43:23.092Z,8.17
2018-02-02T22:45:54.150Z,9.40
2018-02-02T22:48:24.343Z,14.03
2018-02-02T22:50:54.582Z,12.97
2018-02-02T22:53:24.685Z,10.40
2018-02-02T22:55:54.633Z,20.10
2018-02-02T22:58:25.514Z,13.00
2018-02-02T23:00:55.391Z,14.10
2018-02-02T23:03:26.128Z,12.17
2018-02-02T23:05:56.068Z,11.63
2018-02-02T23:08:26.032Z,11.07
2018-02-02T23:10:55.962Z,9.93
2018-02-02T23:13:26.802Z,12.17
2018-02-02T23:15:57.575Z,16.43
2018-02-02T23:18:27.886Z,6.47
2018-02-02T23:20:57.983Z,10.83
2018-02-02T23:23:28.716Z,11.23
2018-02-02T23:25:58.765Z,14.17
2018-02-02T23:28:28.951Z,10.57
2018-02-02T23:30:59.005Z,12.33
2018-02-02T23:33:29.121Z,9.47
2018-02-02T23:35:59.087Z,7.50
2018-02-02T23:38:29.390Z,10.03
2018-02-02T23:40:59.180Z,12.77
2018-02-02T23:43:29.204Z,14.70
2018-02-02T23:45:59.156Z,11.60
2018-02-02T23:48:29.472Z,12.70
2018-02-02T23:50:59.406Z,13.63
2018-02-02T23:53:29.417Z,8.33
2018-02-02T23:55:59.254Z,8.83
2018-02-02T23:58:29.504Z,9.43
